Time;durP1;ratioP1;P1;durP2;ratioP2;P2;SDS_P1;SDS_P2;PMS_P1;PMS_P2;Temp;Humidity;BMP_temperature;BMP_pressure;BME280_temperature;BME280_humidity;BME280_pressure;Samples;Min_cycle;Max_cycle;Signal;HPM_P1;HPM_P2
2022/02/10 00:16:51;;;;;;;0.65;0.65;;;;;;;11.39;67.41;102201.50;5041791;28;20072;-82
2022/02/10 00:19:41;;;;;;;0.28;0.28;;;;;;;11.37;67.32;102204.16;5046514;28;20499;-82
2022/02/10 00:22:11;;;;;;;0.10;0.10;;;;;;;11.44;67.42;102205.03;5045183;28;20042;-82
2022/02/10 00:25:09;;;;;;;0.10;0.10;;;;;;;11.40;66.97;102200.63;5048067;28;20124;-83
2022/02/10 00:35:54;;;;;;;0.20;0.20;;;;;;;11.41;67.13;102178.50;5048652;28;20123;-82
2022/02/10 00:38:23;;;;;;;0.08;0.08;;;;;;;11.42;67.62;102174.97;5048264;28;20037;-81
2022/02/10 00:40:50;;;;;;;0.10;0.10;;;;;;;11.41;67.18;102171.41;5048233;28;20099;-80
2022/02/10 00:43:17;;;;;;;0.50;0.50;;;;;;;11.43;67.18;102171.44;5048417;28;20487;-85
2022/02/10 00:45:44;;;;;;;0.73;0.73;;;;;;;11.38;66.98;102157.28;5047982;28;20060;-82
2022/02/10 00:48:12;;;;;;;0.73;0.60;;;;;;;11.37;67.65;102160.81;5047201;28;20104;-82
2022/02/10 00:50:44;;;;;;;0.90;0.88;;;;;;;11.39;67.36;102159.03;5049862;28;20041;-82
2022/02/10 00:53:30;;;;;;;;;;;;;;;11.56;66.69;102157.22;5044135;28;20033;-83
2022/02/10 00:55:56;;;;;;;0.28;0.28;;;;;;;11.37;67.20;102151.09;5040892;28;19913;-82
2022/02/10 00:58:27;;;;;;;0.30;0.30;;;;;;;11.28;67.06;102152.00;5041669;28;20084;-83
2022/02/10 01:31:41;;;;;;;0.10;0.10;;;;;;;11.32;67.28;102105.97;5012272;28;20034;-83
2022/02/10 01:34:07;;;;;;;0.73;0.73;;;;;;;11.26;67.02;102106.00;5018683;28;20392;-82
2022/02/10 01:36:34;;;;;;;0.90;0.90;;;;;;;11.25;66.88;102101.59;5015147;28;20025;-81
2022/02/10 01:39:02;;;;;;;0.20;0.20;;;;;;;11.24;66.99;102097.19;5017262;28;20028;-82
2022/02/10 01:58:39;;;;;;;2.65;0.75;;;;;;;11.23;67.11;102065.34;5047905;28;20401;-81
2022/02/10 02:03:55;;;;;;;0.15;0.15;;;;;;;11.19;67.46;102058.28;5047289;28;20041;-83
2022/02/10 02:06:27;;;;;;;0.30;0.30;;;;;;;11.23;66.97;102046.78;5045134;28;20120;-84
2022/02/10 02:08:54;;;;;;;0.20;0.20;;;;;;;11.18;67.18;102054.75;5043946;28;20029;-82
2022/02/10 02:11:27;;;;;;;0.10;0.10;;;;;;;11.24;67.50;102044.13;5045396;28;20034;-84
2022/02/10 02:13:55;;;;;;;0.40;0.40;;;;;;;11.22;67.10;102040.56;5047068;28;20392;-83
2022/02/10 02:16:26;;;;;;;4.97;0.35;;;;;;;11.20;67.11;102041.47;5044266;28;20103;-82
2022/02/10 02:18:52;;;;;;;0.35;0.35;;;;;;;11.14;67.28;102035.31;5045271;28;20037;-82
2022/02/10 02:21:19;;;;;;;0.40;0.40;;;;;;;11.17;67.31;102042.38;5047073;28;20064;-84
2022/02/10 02:23:45;;;;;;;0.40;0.40;;;;;;;11.16;67.36;102035.28;5048430;28;20037;-81
2022/02/10 02:26:16;;;;;;;0.32;0.32;;;;;;;11.15;67.23;102033.53;5048522;28;20407;-83
2022/02/10 02:28:43;;;;;;;1.65;1.55;;;;;;;11.11;67.28;102031.78;5045514;28;20086;-83
2022/02/10 02:31:15;;;;;;;1.33;1.13;;;;;;;11.12;67.63;102034.41;5044410;28;20103;-83
2022/02/10 02:37:20;;;;;;;2.88;0.75;;;;;;;11.12;67.53;102033.53;5081028;28;20402;-77
2022/02/10 02:39:20;;;;;;;2.60;1.10;;;;;;;11.16;67.57;102029.97;5079702;28;20041;-77
2022/02/10 03:06:44;;;;;;;1.05;1.05;;;;;;;11.09;67.42;101999.06;5052877;27;20459;-77
2022/02/10 03:09:15;;;;;;;0.73;0.73;;;;;;;11.12;67.69;101991.09;5044973;28;20036;-77
2022/02/10 03:11:43;;;;;;;0.90;0.90;;;;;;;11.19;67.46;101984.88;5051059;28;20075;-77
2022/02/10 03:14:17;;;;;;;0.40;0.40;;;;;;;11.17;67.80;101984.00;5042671;28;20029;-77
2022/02/10 03:17:22;;;;;;;1.02;1.02;;;;;;;11.18;67.41;101988.44;5028312;28;20030;-77
2022/02/10 03:22:35;;;;;;;0.15;0.15;;;;;;;11.22;67.29;101987.50;5029428;28;20113;-78
2022/02/10 03:59:53;;;;;;;2.15;2.05;;;;;;;11.18;67.33;101980.47;5033056;28;20382;-78
2022/02/10 04:12:41;;;;;;;1.75;0.90;;;;;;;11.07;67.78;101984.94;5003166;28;20415;-77
2022/02/10 04:15:16;;;;;;;0.22;0.22;;;;;;;11.00;67.87;101979.66;4990276;28;20393;-77
2022/02/10 04:23:41;;;;;;;0.55;0.55;;;;;;;10.96;68.06;101979.66;5057143;28;20039;-77
2022/02/10 04:56:54;;;;;;;0.10;0.10;;;;;;;10.92;68.34;101960.22;5063236;28;20410;-77
2022/02/10 05:02:37;;;;;;;3.03;1.55;;;;;;;10.80;69.03;101963.81;5044974;27;20811;-76
2022/02/10 05:21:38;;;;;;;0.05;0.05;;;;;;;10.84;68.83;101969.97;5111038;28;20036;-77
2022/02/10 05:24:22;;;;;;;0.38;0.38;;;;;;;10.83;69.07;101973.53;5112885;28;20028;-77
2022/02/10 05:35:24;;;;;;;0.10;0.10;;;;;;;10.73;69.04;101966.47;5012682;28;20517;-77
2022/02/10 05:37:57;;;;;;;1.08;1.08;;;;;;;10.62;69.35;101967.38;4998932;28;20031;-77
2022/02/10 05:41:01;;;;;;;0.10;0.10;;;;;;;10.64;69.17;101962.97;5007281;28;20029;-77
2022/02/10 05:43:21;;;;;;;0.10;0.10;;;;;;;10.56;69.35;101967.38;4997337;28;20042;-77
2022/02/10 05:49:22;;;;;;;0.10;0.10;;;;;;;10.52;69.11;101976.25;5056459;28;20443;-77
2022/02/10 05:57:06;;;;;;;0.20;0.20;;;;;;;10.52;68.93;101985.06;5028174;28;20034;-76
2022/02/10 06:02:47;;;;;;;0.10;0.10;;;;;;;10.49;69.25;101989.47;5025286;28;20037;-77
2022/02/10 06:46:53;;;;;;;1.00;1.00;;;;;;;10.18;69.34;102021.25;5021877;28;20448;-76
2022/02/10 06:47:54;;;;;;;0.10;0.10;;;;;;;10.16;69.58;102025.66;5017816;28;20034;-77
2022/02/10 06:50:00;;;;;;;0.10;0.10;;;;;;;10.18;69.48;102037.13;5026608;28;20038;-75
2022/02/10 06:55:24;;;;;;;0.10;0.10;;;;;;;10.18;69.45;102037.13;5066171;28;20443;-77
2022/02/10 07:09:12;;;;;;;0.10;0.10;;;;;;;10.10;69.45;102038.91;5042789;28;20037;-77
2022/02/10 07:17:24;;;;;;;0.10;0.10;;;;;;;10.12;69.10;102047.72;5087225;28;20032;-77
2022/02/10 07:53:32;;;;;;;0.20;0.20;;;;;;;10.20;68.61;102062.75;5090696;28;20477;-79
2022/02/10 07:59:03;;;;;;;0.00;0.00;;;;;;;10.20;68.65;102077.75;5070809;27;20434;-77
2022/02/10 08:26:04;;;;;;;0.10;0.10;;;;;;;10.20;68.29;102088.34;5049135;28;20033;-77
2022/02/10 08:55:01;;;;;;;0.08;0.08;;;;;;;10.48;67.30;102129.03;5066738;28;20082;-82
2022/02/10 08:59:55;;;;;;;0.10;0.10;;;;;;;10.56;66.84;102128.19;5087382;27;20822;-82
2022/02/10 09:02:37;;;;;;;0.10;0.10;;;;;;;10.62;66.83;102131.72;5051686;28;20049;-82
2022/02/10 09:13:38;;;;;;;0.10;0.10;;;;;;;10.76;65.62;102149.38;5069350;28;20049;-82
2022/02/10 09:16:54;;;;;;;0.10;0.10;;;;;;;10.78;65.65;102150.25;5046812;28;20491;-82
2022/02/10 09:19:06;;;;;;;0.10;0.10;;;;;;;10.76;65.25;102139.66;5046985;28;20083;-82
2022/02/10 09:22:03;;;;;;;0.10;0.10;;;;;;;10.76;64.20;102141.44;5047018;28;20117;-82
2022/02/10 09:25:37;;;;;;;0.13;0.13;;;;;;;10.79;64.24;102142.31;5047219;28;20041;-81
2022/02/10 09:54:09;;;;;;;1.40;1.30;;;;;;;11.09;62.54;102160.84;5069590;27;20450;-81
2022/02/10 09:57:56;;;;;;;0.10;0.10;;;;;;;11.14;61.33;102159.06;5047186;28;20124;-82
2022/02/10 10:00:50;;;;;;;0.10;0.10;;;;;;;11.18;59.93;102150.25;5047186;28;20068;-81
2022/02/10 10:03:24;;;;;;;0.10;0.10;;;;;;;11.20;61.99;102155.53;5046844;28;20059;-81
2022/02/10 10:06:03;;;;;;;0.10;0.10;;;;;;;11.17;59.50;102170.56;5047064;28;20048;-81
2022/02/10 10:09:12;;;;;;;0.00;0.00;;;;;;;11.19;60.60;102162.63;5046972;28;20036;-81
2022/02/10 10:14:25;;;;;;;0.10;0.10;;;;;;;11.29;60.52;102169.69;5108196;27;20388;-82
2022/02/10 10:51:04;;;;;;;0.10;0.10;;;;;;;11.31;55.11;102189.16;5087482;27;20443;-82
2022/02/10 10:56:27;;;;;;;0.10;0.10;;;;;;;11.35;56.06;102194.44;5046902;28;20091;-83
2022/02/10 11:06:12;;;;;;;0.10;0.10;;;;;;;11.39;56.74;102190.88;5058498;28;20186;-83
2022/02/10 11:48:32;;;;;;;0.10;0.10;;;;;;;11.81;52.55;102196.97;5070340;28;20473;-84
2022/02/10 12:29:27;;;;;;;0.73;0.73;;;;;;;11.85;51.24;102189.88;5088858;27;20749;-83
2022/02/10 12:35:02;;;;;;;0.20;0.20;;;;;;;11.42;53.57;102188.22;5065594;28;20448;-83
2022/02/10 12:39:47;;;;;;;0.10;0.10;;;;;;;11.28;54.46;102205.06;5071189;28;20512;-83
2022/02/10 14:15:54;;;;;;;0.10;0.10;;;;;;;11.16;49.79;102167.91;5072526;27;20785;-77
2022/02/10 14:21:07;;;;;;;0.10;0.10;;;;;;;11.15;49.92;102167.06;5110668;27;20396;-77
2022/02/10 14:26:30;;;;;;;0.10;0.10;;;;;;;11.10;50.19;102159.97;5100557;27;20389;-77
2022/02/10 14:28:56;;;;;;;1.75;1.65;;;;;;;11.06;49.69;102174.13;5090705;28;20032;-78
2022/02/10 14:31:22;;;;;;;0.10;0.10;;;;;;;11.14;49.57;102180.28;5090271;28;20471;-77
2022/02/10 14:33:50;;;;;;;0.10;0.10;;;;;;;11.13;49.06;102186.50;5091228;28;20387;-78
2022/02/10 14:36:27;;;;;;;0.10;0.10;;;;;;;11.16;48.84;102183.84;5089559;28;20126;-77
2022/02/10 14:39:08;;;;;;;0.20;0.20;;;;;;;11.11;49.06;102188.25;5090248;28;20036;-77
2022/02/10 15:54:00;;;;;;;0.10;0.10;;;;;;;10.24;49.60;102196.06;5089798;28;20032;-77
2022/02/10 15:56:45;;;;;;;0.10;0.10;;;;;;;10.24;50.02;102189.91;5089315;28;20479;-77
2022/02/10 16:18:42;;;;;;;0.10;0.10;;;;;;;10.05;50.83;102184.53;5041607;28;20119;-79
2022/02/10 16:21:09;;;;;;;0.10;0.10;;;;;;;10.04;51.41;102188.06;5041660;28;20045;-82
2022/02/10 16:23:35;;;;;;;0.10;0.10;;;;;;;9.96;51.57;102184.50;5029480;28;20084;-82
2022/02/10 16:26:21;;;;;;;0.15;0.15;;;;;;;10.02;51.57;102179.25;5028915;28;20452;-82
2022/02/10 16:28:48;;;;;;;0.10;0.10;;;;;;;9.90;51.78;102180.06;5029463;28;20041;-81
2022/02/10 16:31:15;;;;;;;0.10;0.10;;;;;;;9.89;51.80;102188.88;5018257;28;20041;-81
2022/02/10 16:33:43;;;;;;;0.00;0.00;;;;;;;9.85;51.73;102192.41;5016182;28;20034;-81
2022/02/10 16:36:18;;;;;;;0.10;0.10;;;;;;;9.80;51.52;102186.19;5030548;28;20049;-81
2022/02/10 16:39:21;;;;;;;0.10;0.10;;;;;;;9.90;51.82;102182.72;5026241;28;20041;-85
2022/02/10 16:41:47;;;;;;;0.10;0.10;;;;;;;9.82;51.54;102181.78;5030364;28;20115;-82
2022/02/10 16:44:13;;;;;;;0.10;0.10;;;;;;;9.81;51.68;102180.03;5022604;28;20033;-82
2022/02/10 16:46:40;;;;;;;0.85;0.85;;;;;;;9.76;51.40;102184.41;5023115;28;20044;-81
2022/02/10 16:49:09;;;;;;;0.10;0.10;;;;;;;9.64;50.80;102174.66;5028890;28;20038;-81
2022/02/10 16:51:38;;;;;;;0.10;0.10;;;;;;;9.67;51.36;102194.06;5020748;28;20065;-82
2022/02/10 16:54:14;;;;;;;0.10;0.10;;;;;;;9.65;50.96;102179.94;5026037;28;20029;-83
2022/02/10 16:56:58;;;;;;;0.10;0.10;;;;;;;9.68;50.93;102182.63;5029905;28;20036;-84
2022/02/10 16:59:38;;;;;;;0.10;0.10;;;;;;;9.62;50.90;102187.88;5032934;28;20038;-82
2022/02/10 17:02:20;;;;;;;0.10;0.10;;;;;;;9.59;50.68;102184.31;5032525;28;20111;-84
2022/02/10 17:16:51;;;;;;;0.10;0.10;;;;;;;9.41;51.16;102198.31;5030856;28;20042;-82
2022/02/10 17:27:21;;;;;;;0.10;0.10;;;;;;;9.46;51.06;102204.50;5047840;28;20179;-82
2022/02/10 17:35:33;;;;;;;0.10;0.10;;;;;;;9.33;51.95;102212.41;5056888;28;20443;-83
2022/02/10 17:41:35;;;;;;;0.10;0.10;;;;;;;9.32;52.02;102221.19;5061034;28;20154;-82
2022/02/10 17:46:24;;;;;;;0.10;0.10;;;;;;;9.30;52.65;102220.28;5042622;28;20392;-82
2022/02/10 17:51:46;;;;;;;0.10;0.10;;;;;;;9.31;52.70;102222.06;5035506;28;20048;-82
2022/02/10 17:54:13;;;;;;;0.10;0.10;;;;;;;9.26;52.37;102223.78;5040660;28;20476;-82
2022/02/10 17:56:40;;;;;;;0.10;0.10;;;;;;;9.27;52.83;102232.59;5035455;28;20784;-82
2022/02/10 17:59:07;;;;;;;0.13;0.13;;;;;;;9.27;52.71;102230.88;5036389;28;20113;-80
2022/02/10 18:01:34;;;;;;;0.10;0.10;;;;;;;9.23;53.11;102236.97;5040388;28;20144;-81
2022/02/10 18:04:01;;;;;;;0.20;0.20;;;;;;;9.14;52.22;102240.44;5035443;28;20033;-82
2022/02/10 18:06:29;;;;;;;0.10;0.10;;;;;;;9.16;52.73;102235.16;5040508;28;20048;-82
2022/02/10 18:09:18;;;;;;;0.10;0.10;;;;;;;9.11;52.70;102240.44;5035102;28;20175;-81
2022/02/10 18:17:41;;;;;;;0.43;0.43;;;;;;;9.21;52.51;102214.94;5060418;27;20449;-81
2022/02/10 18:20:17;;;;;;;0.10;0.10;;;;;;;9.14;52.89;102223.69;5054627;28;20056;-81
2022/02/10 18:23:20;;;;;;;0.10;0.10;;;;;;;9.10;53.12;102227.16;5060668;28;20021;-81
2022/02/10 18:25:48;;;;;;;0.10;0.10;;;;;;;9.11;52.70;102224.56;5061241;28;20033;-80
2022/02/10 19:09:45;;;;;;;0.10;0.10;;;;;;;8.99;54.08;102246.47;5049946;28;20049;-81
2022/02/10 19:12:19;;;;;;;0.68;0.68;;;;;;;8.97;54.02;102249.97;5054210;28;20037;-82
2022/02/10 19:14:58;;;;;;;0.05;0.05;;;;;;;8.95;54.53;102249.97;5058820;28;20028;-82
2022/02/10 19:17:26;;;;;;;0.10;0.10;;;;;;;8.87;54.78;102246.34;5059049;28;20021;-81
2022/02/10 19:19:52;;;;;;;0.10;0.10;;;;;;;8.82;55.20;102243.69;5055038;28;20040;-80
2022/02/10 19:22:21;;;;;;;0.10;0.10;;;;;;;8.81;55.04;102254.22;5059871;28;20141;-80
2022/02/10 19:24:48;;;;;;;0.10;0.10;;;;;;;8.77;55.62;102244.50;5038060;28;20068;-81
2022/02/10 19:27:16;;;;;;;0.10;0.10;;;;;;;8.77;54.93;102233.94;5055543;28;20026;-81
2022/02/10 19:29:44;;;;;;;0.20;0.20;;;;;;;8.65;55.54;102235.59;5048870;28;20042;-80
2022/02/10 19:32:15;;;;;;;0.10;0.10;;;;;;;8.66;56.39;102240.00;5054784;28;20037;-81
2022/02/10 19:34:42;;;;;;;0.10;0.10;;;;;;;8.70;55.30;102239.16;5055926;28;20457;-81
2022/02/10 19:37:10;;;;;;;3.20;1.17;;;;;;;8.68;55.77;102240.88;5051533;28;20056;-81
2022/02/10 19:39:41;;;;;;;0.00;0.00;;;;;;;8.62;56.75;102240.81;5047321;28;20033;-80
2022/02/10 19:42:07;;;;;;;0.70;0.70;;;;;;;8.68;55.87;102242.66;5051810;28;20102;-81
2022/02/10 19:44:38;;;;;;;0.10;0.10;;;;;;;8.72;55.61;102247.09;5046357;28;20163;-80
2022/02/10 19:47:05;;;;;;;0.17;0.17;;;;;;;8.62;56.05;102250.50;5034606;28;20126;-80
2022/02/10 19:49:31;;;;;;;0.10;0.10;;;;;;;8.64;56.47;102254.94;5030143;28;20487;-81
2022/02/10 19:51:58;;;;;;;0.10;0.10;;;;;;;8.62;56.31;102255.78;5031677;28;20048;-81
2022/02/10 19:54:27;;;;;;;0.10;0.10;;;;;;;8.59;56.64;102251.38;5031427;28;20030;-81
2022/02/10 19:56:56;;;;;;;0.10;0.10;;;;;;;8.63;56.55;102244.38;5031376;28;20029;-81
2022/02/10 19:59:26;;;;;;;0.10;0.10;;;;;;;8.62;56.37;102245.22;5035884;28;20029;-80
2022/02/10 20:01:53;;;;;;;0.10;0.10;;;;;;;8.58;56.39;102252.22;5031667;28;20038;-81
2022/02/10 20:04:21;;;;;;;0.10;0.10;;;;;;;8.58;56.66;102249.59;5028949;28;20026;-84
2022/02/10 20:06:47;;;;;;;0.10;0.10;;;;;;;8.58;56.55;102245.22;5033837;28;20392;-82
2022/02/10 20:09:15;;;;;;;0.10;0.10;;;;;;;8.60;56.92;102244.31;5031613;28;20037;-81
2022/02/10 20:11:42;;;;;;;7.78;2.92;;;;;;;8.53;56.89;102246.03;5036366;28;20034;-81
2022/02/10 20:14:08;;;;;;;0.10;0.10;;;;;;;8.42;56.95;102245.84;5032789;28;20037;-81
2022/02/10 20:16:34;;;;;;;0.10;0.10;;;;;;;8.49;56.73;102244.22;5032904;28;20146;-80
2022/02/10 20:19:02;;;;;;;0.20;0.20;;;;;;;8.47;56.17;102246.81;5034995;28;20031;-79
2022/02/10 20:21:30;;;;;;;0.20;0.20;;;;;;;8.45;56.62;102248.53;5031664;28;20034;-80
2022/02/10 20:23:56;;;;;;;0.10;0.10;;;;;;;8.46;56.39;102244.13;5036346;28;20033;-79
2022/02/10 20:26:23;;;;;;;0.20;0.20;;;;;;;8.47;56.40;102249.47;5038485;28;20040;-82
2022/02/10 20:28:49;;;;;;;0.10;0.10;;;;;;;8.46;56.71;102249.41;5033338;28;20037;-80
2022/02/10 20:31:15;;;;;;;0.10;0.10;;;;;;;8.55;56.76;102254.84;5034854;28;20029;-82
2022/02/10 20:33:43;;;;;;;2.60;1.23;;;;;;;8.49;56.04;102253.03;5030881;28;20045;-83
2022/02/10 20:36:09;;;;;;;0.35;0.35;;;;;;;8.58;56.01;102254.88;5031309;28;20389;-85
2022/02/10 20:38:40;;;;;;;2.08;1.92;;;;;;;8.57;55.70;102243.44;5034705;28;20021;-82
2022/02/10 20:41:11;;;;;;;0.10;0.10;;;;;;;8.61;55.79;102252.28;5039473;28;20116;-82
2022/02/10 20:43:38;;;;;;;0.00;0.00;;;;;;;8.70;55.80;102255.00;5035691;28;20022;-80
2022/02/10 20:46:08;;;;;;;0.10;0.10;;;;;;;8.66;55.90;102257.59;5034800;28;20029;-81
2022/02/10 20:48:36;;;;;;;0.10;0.10;;;;;;;8.62;55.34;102258.44;5039583;28;20033;-81
2022/02/10 20:51:06;;;;;;;0.10;0.10;;;;;;;8.59;55.69;102256.66;5035516;28;20039;-81
2022/02/10 20:53:36;;;;;;;0.10;0.10;;;;;;;8.51;55.43;102259.22;5032963;28;20037;-81
2022/02/10 20:56:05;;;;;;;0.22;0.22;;;;;;;8.54;54.90;102258.38;5034560;28;20025;-83
2022/02/10 20:58:33;;;;;;;0.10;0.10;;;;;;;8.60;54.89;102257.53;5034318;28;20084;-84
2022/02/10 21:01:02;;;;;;;0.15;0.15;;;;;;;8.53;54.87;102256.59;5029258;28;20124;-84
2022/02/10 21:03:31;;;;;;;0.10;0.10;;;;;;;8.55;55.30;102252.22;5031111;28;20045;-83
2022/02/10 21:06:47;;;;;;;0.10;0.10;;;;;;;8.51;55.26;102247.75;5032611;28;20420;-83
2022/02/10 21:08:53;;;;;;;0.10;0.10;;;;;;;8.38;54.97;102247.56;5030815;28;20480;-86
2022/02/10 21:11:23;;;;;;;0.20;0.20;;;;;;;8.40;55.56;102237.03;5028953;28;20128;-86
2022/02/10 21:13:49;;;;;;;0.10;0.10;;;;;;;8.38;55.27;102241.41;5031050;28;20061;-79
2022/02/10 21:16:16;;;;;;;0.00;0.00;;;;;;;8.31;55.53;102240.47;5031251;28;20056;-82
2022/02/10 21:18:43;;;;;;;0.10;0.10;;;;;;;8.31;55.71;102243.13;5043975;28;20026;-82
2022/02/10 21:21:15;;;;;;;0.10;0.10;;;;;;;8.21;55.82;102244.75;5033347;28;20030;-82
2022/02/10 21:24:02;;;;;;;0.10;0.10;;;;;;;8.18;55.94;102241.19;5038019;28;20021;-82
2022/02/10 21:26:33;;;;;;;0.10;0.10;;;;;;;8.19;55.21;102248.25;5036202;28;20045;-81
2022/02/10 21:29:02;;;;;;;0.10;0.10;;;;;;;8.08;55.84;102246.31;5047626;28;20471;-81
2022/02/10 21:31:30;;;;;;;0.10;0.10;;;;;;;8.04;55.93;102248.94;5045000;28;20033;-82
2022/02/10 21:34:08;;;;;;;0.47;0.47;;;;;;;8.02;55.95;102251.53;5044815;28;20109;-82
2022/02/10 21:37:09;;;;;;;0.10;0.10;;;;;;;8.04;55.47;102249.81;5033193;28;20036;-81
2022/02/10 21:45:45;;;;;;;0.10;0.10;;;;;;;7.92;55.12;102241.72;5059138;28;20036;-81
2022/02/10 22:10:08;;;;;;;0.10;0.10;;;;;;;7.67;54.22;102245.78;5065059;28;20913;-81
2022/02/10 22:23:35;;;;;;;0.10;0.10;;;;;;;7.64;54.99;102254.53;5082818;27;20498;-82
2022/02/10 22:26:06;;;;;;;0.10;0.10;;;;;;;7.64;55.12;102256.25;5037869;28;20029;-80
2022/02/10 22:28:50;;;;;;;0.20;0.20;;;;;;;7.56;54.77;102253.50;5030462;28;20048;-81
2022/02/10 22:34:22;;;;;;;0.10;0.10;;;;;;;7.67;55.37;102259.84;5072656;28;20418;-80
2022/02/10 22:36:56;;;;;;;0.77;0.77;;;;;;;7.65;54.84;102258.94;5068259;28;20036;-81
2022/02/10 22:39:23;;;;;;;0.10;0.10;;;;;;;7.69;55.30;102258.13;5063197;28;20040;-81
2022/02/10 22:41:49;;;;;;;0.10;0.10;;;;;;;7.63;54.76;102250.13;5058453;28;20033;-80
2022/02/10 22:44:16;;;;;;;0.10;0.10;;;;;;;7.65;55.49;102256.31;5066710;28;20024;-81
2022/02/10 22:46:45;;;;;;;0.10;0.10;;;;;;;7.68;55.04;102260.75;5060400;28;20037;-81
2022/02/10 22:49:13;;;;;;;0.20;0.20;;;;;;;7.64;55.77;102254.53;5054269;28;20480;-82
2022/02/10 22:51:40;;;;;;;0.10;0.10;;;;;;;7.61;55.33;102252.75;5054223;28;20491;-82
2022/02/10 22:54:07;;;;;;;0.10;0.10;;;;;;;7.60;55.56;102255.31;5051702;28;20029;-80
2022/02/10 22:56:35;;;;;;;7.82;1.90;;;;;;;7.55;55.86;102262.28;5060386;28;20079;-81
2022/02/10 22:59:05;;;;;;;0.10;0.10;;;;;;;7.57;55.75;102260.56;5067855;28;20055;-84
2022/02/10 23:01:33;;;;;;;0.00;0.00;;;;;;;7.53;56.01;102258.75;5065157;28;20037;-81
2022/02/10 23:03:59;;;;;;;0.10;0.10;;;;;;;7.49;55.79;102268.38;5066398;28;20480;-83
2022/02/10 23:06:25;;;;;;;0.40;0.40;;;;;;;7.44;55.91;102270.94;5065737;28;20037;-82
2022/02/10 23:08:52;;;;;;;0.10;0.10;;;;;;;7.49;56.22;102263.09;5067008;28;20043;-83
2022/02/10 23:11:27;;;;;;;0.10;0.10;;;;;;;7.54;56.18;102265.78;5067448;28;20060;-81
2022/02/10 23:13:55;;;;;;;0.10;0.10;;;;;;;7.47;55.97;102266.56;5066836;28;20060;-83
2022/02/10 23:16:21;;;;;;;0.00;0.00;;;;;;;7.54;55.77;102276.34;5067144;28;20056;-82
2022/02/10 23:18:48;;;;;;;0.32;0.32;;;;;;;7.51;55.62;102287.72;5067294;28;20025;-82
2022/02/10 23:21:15;;;;;;;0.10;0.10;;;;;;;7.55;55.12;102275.47;5066851;28;20028;-82
2022/02/10 23:23:45;;;;;;;0.10;0.10;;;;;;;7.62;55.56;102272.06;5063546;28;20464;-81
2022/02/10 23:26:15;;;;;;;0.10;0.10;;;;;;;7.72;54.34;102270.47;5061256;28;20029;-81
2022/02/10 23:28:47;;;;;;;0.10;0.10;;;;;;;7.75;54.47;102276.69;5056361;28;20112;-81
2022/02/10 23:31:16;;;;;;;0.10;0.10;;;;;;;7.78;54.37;102263.50;5053831;28;20028;-82
2022/02/10 23:33:48;;;;;;;0.10;0.10;;;;;;;7.84;54.02;102270.66;5055382;28;20069;-81
2022/02/10 23:39:22;;;;;;;0.10;0.10;;;;;;;7.86;53.73;102257.47;5078961;28;20495;-82
2022/02/10 23:42:00;;;;;;;0.10;0.10;;;;;;;7.89;53.52;102268.97;5065089;28;20036;-82
2022/02/10 23:47:20;;;;;;;0.10;0.10;;;;;;;7.85;53.71;102269.78;5052675;28;20486;-81
2022/02/10 23:49:51;;;;;;;0.35;0.35;;;;;;;7.90;53.61;102269.81;5044051;28;20053;-81
2022/02/10 23:52:18;;;;;;;0.10;0.10;;;;;;;7.77;54.34;102272.28;5048361;28;20044;-81
2022/02/10 23:54:50;;;;;;;0.00;0.00;;;;;;;7.76;54.39;102275.81;5039007;28;20391;-81
2022/02/10 23:57:43;;;;;;;0.10;0.10;;;;;;;7.91;54.45;102276.88;5030477;28;20380;-79
